Raylah — MFYK2 — position and weather

sailwx.info

Track history (hours):
 
Tides and Currents Weather Stations Pressure Air Temp Water Temp Dewpoint Dewpoint Depression Visibility Wind Speed Wind Dir Waves Ship Positions

Raylah

Last reported at 2018-Apr-25 15:58 UTC. Time now 2018-Apr-26 13:28 UTC.
Position N 26°07' W 080°09'.

Length 13 m.

Type: Pleasure craft. MMSI: 235020483.

Date/timePositionNaut miles runAvg speedWind from/ knotsBaromVisibWave heightAir tempDewpointWater temp
2018-Apr-25 15:58N 26°07' W 080°09'1 1.3
2018-Apr-25 15:28N 26°07' W 080°09'1 2.9
2018-Apr-25 15:00N 26°07' W 080°07'2 4.1
2018-Apr-25 14:25N 26°09' W 080°06'3 5.2
2018-Apr-25 13:53N 26°12' W 080°06'41 1.8
2018-Apr-24 15:00N 26°53' W 080°04'3 6.5
2018-Apr-24 14:30N 26°56' W 080°05'2 3.7
2018-Apr-24 14:00N 26°58' W 080°05'  
2018-Apr-16 12:34N 31°53' W 081°05'1 6.6
2018-Apr-16 12:28N 31°54' W 081°06'2 3.4
2018-Apr-16 11:59N 31°55' W 081°05'3 5.4
2018-Apr-16 11:30N 31°58' W 081°03'  
Track history (hours):
 
Tides and Currents Weather Stations Pressure Air Temp Water Temp Dewpoint Dewpoint Depression Visibility Wind Speed Wind Dir Waves Ship Positions

Raylah

Last reported at 2018-Apr-25 15:58 UTC. Time now 2018-Apr-26 13:28 UTC.
Position N 26°07' W 080°09'.

Length 13 m.

Type: Pleasure craft. MMSI: 235020483.

Date/timePositionNaut miles runAvg speedWind from/ knotsBaromVisibWave heightAir tempDewpointWater temp
2018-Apr-25 15:58N 26°07' W 080°09'1 1.3
2018-Apr-25 15:28N 26°07' W 080°09'1 2.9
2018-Apr-25 15:00N 26°07' W 080°07'2 4.1
2018-Apr-25 14:25N 26°09' W 080°06'3 5.2
2018-Apr-25 13:53N 26°12' W 080°06'41 1.8
2018-Apr-24 15:00N 26°53' W 080°04'3 6.5
2018-Apr-24 14:30N 26°56' W 080°05'2 3.7
2018-Apr-24 14:00N 26°58' W 080°05'  
2018-Apr-16 12:34N 31°53' W 081°05'1 6.6
2018-Apr-16 12:28N 31°54' W 081°06'2 3.4
2018-Apr-16 11:59N 31°55' W 081°05'3 5.4
2018-Apr-16 11:30N 31°58' W 081°03'  

Dump ship's entire track history